sensor_id;sensor_type;location;lat;lon;timestamp;P1;durP1;ratioP1;P2;durP2;ratioP2
52512;SDS011;38422;53.172;6.974;2024-03-02T00:01:41;6.03;;;2.92;;
52512;SDS011;38422;53.172;6.974;2024-03-02T00:06:34;4.10;;;2.55;;
52512;SDS011;38422;53.172;6.974;2024-03-02T00:09:00;5.82;;;3.33;;
52512;SDS011;38422;53.172;6.974;2024-03-02T00:11:26;5.35;;;3.50;;
52512;SDS011;38422;53.172;6.974;2024-03-02T00:13:52;6.70;;;3.58;;
52512;SDS011;38422;53.172;6.974;2024-03-02T00:16:19;6.05;;;3.88;;
52512;SDS011;38422;53.172;6.974;2024-03-02T00:18:45;5.15;;;3.15;;
52512;SDS011;38422;53.172;6.974;2024-03-02T00:21:11;5.10;;;3.35;;
52512;SDS011;38422;53.172;6.974;2024-03-02T00:23:38;5.57;;;3.60;;
52512;SDS011;38422;53.172;6.974;2024-03-02T00:26:04;5.85;;;3.50;;
52512;SDS011;38422;53.172;6.974;2024-03-02T00:28:32;5.88;;;3.42;;
52512;SDS011;38422;53.172;6.974;2024-03-02T00:33:44;6.18;;;3.63;;
52512;SDS011;38422;53.172;6.974;2024-03-02T00:36:24;6.53;;;3.75;;
52512;SDS011;38422;53.172;6.974;2024-03-02T00:38:54;7.20;;;3.50;;
52512;SDS011;38422;53.172;6.974;2024-03-02T00:41:30;5.97;;;3.53;;
52512;SDS011;38422;53.172;6.974;2024-03-02T00:44:06;5.93;;;3.60;;
52512;SDS011;38422;53.172;6.974;2024-03-02T00:46:35;5.00;;;3.08;;
52512;SDS011;38422;53.172;6.974;2024-03-02T00:49:03;5.55;;;3.20;;
52512;SDS011;38422;53.172;6.974;2024-03-02T00:51:31;5.97;;;3.28;;
52512;SDS011;38422;53.172;6.974;2024-03-02T00:54:02;5.68;;;3.25;;
52512;SDS011;38422;53.172;6.974;2024-03-02T00:56:30;4.90;;;3.15;;
52512;SDS011;38422;53.172;6.974;2024-03-02T00:58:57;5.30;;;2.70;;
52512;SDS011;38422;53.172;6.974;2024-03-02T01:01:22;4.90;;;2.92;;
52512;SDS011;38422;53.172;6.974;2024-03-02T01:03:48;4.95;;;2.75;;
52512;SDS011;38422;53.172;6.974;2024-03-02T01:06:15;5.88;;;2.95;;
52512;SDS011;38422;53.172;6.974;2024-03-02T01:08:42;4.78;;;3.00;;
52512;SDS011;38422;53.172;6.974;2024-03-02T01:11:08;5.38;;;3.20;;
52512;SDS011;38422;53.172;6.974;2024-03-02T01:13:34;5.45;;;3.10;;
52512;SDS011;38422;53.172;6.974;2024-03-02T01:16:00;5.20;;;3.10;;
52512;SDS011;38422;53.172;6.974;2024-03-02T01:18:27;5.70;;;3.00;;
52512;SDS011;38422;53.172;6.974;2024-03-02T01:20:52;4.43;;;2.92;;
52512;SDS011;38422;53.172;6.974;2024-03-02T01:23:21;4.95;;;3.00;;
52512;SDS011;38422;53.172;6.974;2024-03-02T01:25:47;5.13;;;2.87;;
52512;SDS011;38422;53.172;6.974;2024-03-02T01:28:13;5.47;;;2.85;;
52512;SDS011;38422;53.172;6.974;2024-03-02T01:30:39;4.25;;;2.72;;
52512;SDS011;38422;53.172;6.974;2024-03-02T01:33:05;4.40;;;2.83;;
52512;SDS011;38422;53.172;6.974;2024-03-02T01:35:31;5.50;;;3.00;;
52512;SDS011;38422;53.172;6.974;2024-03-02T01:37:57;4.70;;;3.08;;
52512;SDS011;38422;53.172;6.974;2024-03-02T01:40:23;5.50;;;3.05;;
52512;SDS011;38422;53.172;6.974;2024-03-02T01:42:55;5.15;;;2.90;;
52512;SDS011;38422;53.172;6.974;2024-03-02T01:45:23;4.53;;;2.65;;
52512;SDS011;38422;53.172;6.974;2024-03-02T01:47:49;4.13;;;2.42;;
52512;SDS011;38422;53.172;6.974;2024-03-02T01:50:14;5.95;;;2.80;;
52512;SDS011;38422;53.172;6.974;2024-03-02T01:52:40;4.40;;;2.55;;
52512;SDS011;38422;53.172;6.974;2024-03-02T01:55:07;5.22;;;2.42;;
52512;SDS011;38422;53.172;6.974;2024-03-02T01:57:33;3.70;;;2.58;;
52512;SDS011;38422;53.172;6.974;2024-03-02T02:00:00;4.05;;;2.60;;
52512;SDS011;38422;53.172;6.974;2024-03-02T02:02:26;5.28;;;2.47;;
52512;SDS011;38422;53.172;6.974;2024-03-02T02:04:51;5.03;;;2.53;;
52512;SDS011;38422;53.172;6.974;2024-03-02T02:07:17;5.53;;;2.35;;
52512;SDS011;38422;53.172;6.974;2024-03-02T02:09:43;4.18;;;2.28;;
52512;SDS011;38422;53.172;6.974;2024-03-02T02:12:09;3.70;;;2.30;;
52512;SDS011;38422;53.172;6.974;2024-03-02T02:14:35;4.00;;;2.55;;
52512;SDS011;38422;53.172;6.974;2024-03-02T02:17:01;3.42;;;2.00;;
52512;SDS011;38422;53.172;6.974;2024-03-02T02:19:27;2.92;;;1.88;;
52512;SDS011;38422;53.172;6.974;2024-03-02T02:21:53;3.58;;;2.10;;
52512;SDS011;38422;53.172;6.974;2024-03-02T02:24:19;3.92;;;1.80;;
52512;SDS011;38422;53.172;6.974;2024-03-02T02:26:45;3.60;;;2.10;;
52512;SDS011;38422;53.172;6.974;2024-03-02T02:29:11;4.10;;;2.13;;
52512;SDS011;38422;53.172;6.974;2024-03-02T02:31:40;2.78;;;2.00;;
52512;SDS011;38422;53.172;6.974;2024-03-02T02:34:06;2.88;;;1.90;;
52512;SDS011;38422;53.172;6.974;2024-03-02T02:39:02;3.78;;;2.05;;
52512;SDS011;38422;53.172;6.974;2024-03-02T02:41:29;3.25;;;1.80;;
52512;SDS011;38422;53.172;6.974;2024-03-02T02:43:55;3.53;;;2.25;;
52512;SDS011;38422;53.172;6.974;2024-03-02T02:46:21;3.45;;;2.08;;
52512;SDS011;38422;53.172;6.974;2024-03-02T02:48:46;2.80;;;2.15;;
52512;SDS011;38422;53.172;6.974;2024-03-02T02:51:12;2.85;;;1.73;;
52512;SDS011;38422;53.172;6.974;2024-03-02T02:53:38;3.10;;;1.70;;
52512;SDS011;38422;53.172;6.974;2024-03-02T02:58:34;2.83;;;1.58;;
52512;SDS011;38422;53.172;6.974;2024-03-02T03:01:00;3.28;;;1.95;;
52512;SDS011;38422;53.172;6.974;2024-03-02T03:03:26;2.75;;;1.77;;
52512;SDS011;38422;53.172;6.974;2024-03-02T03:05:52;3.92;;;1.67;;
52512;SDS011;38422;53.172;6.974;2024-03-02T03:08:18;3.50;;;2.10;;
52512;SDS011;38422;53.172;6.974;2024-03-02T03:10:43;3.42;;;2.00;;
52512;SDS011;38422;53.172;6.974;2024-03-02T03:13:10;3.70;;;1.70;;
52512;SDS011;38422;53.172;6.974;2024-03-02T03:15:35;3.75;;;1.88;;
52512;SDS011;38422;53.172;6.974;2024-03-02T03:18:01;3.08;;;1.63;;
52512;SDS011;38422;53.172;6.974;2024-03-02T03:20:31;3.72;;;1.65;;
52512;SDS011;38422;53.172;6.974;2024-03-02T03:22:57;2.50;;;1.65;;
52512;SDS011;38422;53.172;6.974;2024-03-02T03:25:23;2.63;;;1.65;;
52512;SDS011;38422;53.172;6.974;2024-03-02T03:27:48;2.92;;;1.55;;
52512;SDS011;38422;53.172;6.974;2024-03-02T03:30:14;3.53;;;1.88;;
52512;SDS011;38422;53.172;6.974;2024-03-02T03:32:40;2.47;;;1.70;;
52512;SDS011;38422;53.172;6.974;2024-03-02T03:35:06;2.65;;;1.52;;
52512;SDS011;38422;53.172;6.974;2024-03-02T03:37:32;3.00;;;1.70;;
52512;SDS011;38422;53.172;6.974;2024-03-02T03:40:04;2.28;;;1.50;;
52512;SDS011;38422;53.172;6.974;2024-03-02T03:42:37;2.58;;;1.52;;
52512;SDS011;38422;53.172;6.974;2024-03-02T03:45:03;2.47;;;1.58;;
52512;SDS011;38422;53.172;6.974;2024-03-02T03:47:31;3.00;;;1.60;;
52512;SDS011;38422;53.172;6.974;2024-03-02T03:49:57;2.50;;;1.50;;
52512;SDS011;38422;53.172;6.974;2024-03-02T03:52:23;2.60;;;1.52;;
52512;SDS011;38422;53.172;6.974;2024-03-02T03:54:49;3.28;;;1.55;;
52512;SDS011;38422;53.172;6.974;2024-03-02T03:57:14;2.63;;;1.50;;
52512;SDS011;38422;53.172;6.974;2024-03-02T03:59:41;3.30;;;1.45;;
52512;SDS011;38422;53.172;6.974;2024-03-02T04:02:12;3.15;;;1.60;;
52512;SDS011;38422;53.172;6.974;2024-03-02T04:04:38;2.10;;;1.45;;
52512;SDS011;38422;53.172;6.974;2024-03-02T04:07:03;2.55;;;1.60;;
52512;SDS011;38422;53.172;6.974;2024-03-02T04:09:29;2.72;;;1.52;;
52512;SDS011;38422;53.172;6.974;2024-03-02T04:11:55;3.08;;;1.70;;
52512;SDS011;38422;53.172;6.974;2024-03-02T04:14:20;2.17;;;1.50;;
52512;SDS011;38422;53.172;6.974;2024-03-02T04:16:47;2.40;;;1.55;;
52512;SDS011;38422;53.172;6.974;2024-03-02T04:19:13;1.88;;;1.30;;
52512;SDS011;38422;53.172;6.974;2024-03-02T04:21:39;2.67;;;1.60;;
52512;SDS011;38422;53.172;6.974;2024-03-02T04:24:05;2.97;;;1.50;;
52512;SDS011;38422;53.172;6.974;2024-03-02T04:26:30;3.40;;;1.65;;
52512;SDS011;38422;53.172;6.974;2024-03-02T04:28:56;2.85;;;1.45;;
52512;SDS011;38422;53.172;6.974;2024-03-02T04:31:21;2.50;;;1.77;;
52512;SDS011;38422;53.172;6.974;2024-03-02T04:33:47;2.75;;;1.60;;
52512;SDS011;38422;53.172;6.974;2024-03-02T04:36:13;2.70;;;1.63;;
52512;SDS011;38422;53.172;6.974;2024-03-02T04:38:38;2.83;;;1.60;;
52512;SDS011;38422;53.172;6.974;2024-03-02T04:41:04;3.20;;;1.50;;
52512;SDS011;38422;53.172;6.974;2024-03-02T04:43:33;3.92;;;1.80;;
52512;SDS011;38422;53.172;6.974;2024-03-02T04:46:00;2.50;;;1.45;;
52512;SDS011;38422;53.172;6.974;2024-03-02T04:48:26;3.30;;;1.52;;
52512;SDS011;38422;53.172;6.974;2024-03-02T04:50:52;3.55;;;1.88;;
52512;SDS011;38422;53.172;6.974;2024-03-02T04:53:18;2.53;;;1.38;;
52512;SDS011;38422;53.172;6.974;2024-03-02T04:55:43;3.05;;;1.70;;
52512;SDS011;38422;53.172;6.974;2024-03-02T04:58:09;3.83;;;1.50;;
52512;SDS011;38422;53.172;6.974;2024-03-02T05:00:35;2.80;;;1.48;;
52512;SDS011;38422;53.172;6.974;2024-03-02T05:03:01;3.72;;;1.90;;
52512;SDS011;38422;53.172;6.974;2024-03-02T05:05:27;3.22;;;1.50;;
52512;SDS011;38422;53.172;6.974;2024-03-02T05:07:53;3.08;;;1.60;;
52512;SDS011;38422;53.172;6.974;2024-03-02T05:10:19;2.60;;;1.52;;
52512;SDS011;38422;53.172;6.974;2024-03-02T05:12:44;3.60;;;1.80;;
52512;SDS011;38422;53.172;6.974;2024-03-02T05:15:11;3.42;;;1.70;;
52512;SDS011;38422;53.172;6.974;2024-03-02T05:17:38;3.00;;;1.60;;
52512;SDS011;38422;53.172;6.974;2024-03-02T05:20:08;2.55;;;1.50;;
52512;SDS011;38422;53.172;6.974;2024-03-02T05:22:34;2.50;;;1.40;;
52512;SDS011;38422;53.172;6.974;2024-03-02T05:25:01;3.38;;;1.60;;
52512;SDS011;38422;53.172;6.974;2024-03-02T05:27:27;3.38;;;1.60;;
52512;SDS011;38422;53.172;6.974;2024-03-02T05:29:53;4.15;;;1.80;;
52512;SDS011;38422;53.172;6.974;2024-03-02T05:32:19;2.63;;;1.42;;
52512;SDS011;38422;53.172;6.974;2024-03-02T05:34:44;3.05;;;1.50;;
52512;SDS011;38422;53.172;6.974;2024-03-02T05:37:10;2.83;;;1.40;;
52512;SDS011;38422;53.172;6.974;2024-03-02T05:39:36;2.40;;;1.30;;
52512;SDS011;38422;53.172;6.974;2024-03-02T05:42:02;3.03;;;1.50;;
52512;SDS011;38422;53.172;6.974;2024-03-02T05:44:28;3.67;;;1.48;;
52512;SDS011;38422;53.172;6.974;2024-03-02T05:46:54;3.33;;;1.23;;
52512;SDS011;38422;53.172;6.974;2024-03-02T05:49:20;2.65;;;1.20;;
52512;SDS011;38422;53.172;6.974;2024-03-02T05:51:46;3.95;;;1.38;;
52512;SDS011;38422;53.172;6.974;2024-03-02T05:54:11;2.42;;;1.40;;
52512;SDS011;38422;53.172;6.974;2024-03-02T05:56:37;1.95;;;1.17;;
52512;SDS011;38422;53.172;6.974;2024-03-02T05:59:03;2.85;;;1.15;;
52512;SDS011;38422;53.172;6.974;2024-03-02T06:01:46;4.45;;;1.23;;
52512;SDS011;38422;53.172;6.974;2024-03-02T06:04:13;1.88;;;0.90;;
52512;SDS011;38422;53.172;6.974;2024-03-02T06:06:39;2.85;;;1.23;;
52512;SDS011;38422;53.172;6.974;2024-03-02T06:09:06;2.45;;;1.20;;
52512;SDS011;38422;53.172;6.974;2024-03-02T06:11:39;2.55;;;1.13;;
52512;SDS011;38422;53.172;6.974;2024-03-02T06:16:32;3.53;;;1.15;;
52512;SDS011;38422;53.172;6.974;2024-03-02T06:18:58;4.47;;;1.30;;
52512;SDS011;38422;53.172;6.974;2024-03-02T06:21:27;2.20;;;1.23;;
52512;SDS011;38422;53.172;6.974;2024-03-02T06:23:53;2.92;;;1.17;;
52512;SDS011;38422;53.172;6.974;2024-03-02T06:26:19;2.15;;;1.20;;
52512;SDS011;38422;53.172;6.974;2024-03-02T06:28:45;2.78;;;1.38;;
52512;SDS011;38422;53.172;6.974;2024-03-02T06:31:11;1.85;;;1.10;;
52512;SDS011;38422;53.172;6.974;2024-03-02T06:33:37;2.13;;;0.90;;
52512;SDS011;38422;53.172;6.974;2024-03-02T06:36:03;3.05;;;1.48;;
52512;SDS011;38422;53.172;6.974;2024-03-02T06:38:29;2.65;;;1.00;;
52512;SDS011;38422;53.172;6.974;2024-03-02T06:40:57;2.63;;;1.23;;
52512;SDS011;38422;53.172;6.974;2024-03-02T06:43:23;2.22;;;1.35;;
52512;SDS011;38422;53.172;6.974;2024-03-02T06:45:51;2.47;;;1.05;;
52512;SDS011;38422;53.172;6.974;2024-03-02T06:48:17;2.30;;;1.10;;
52512;SDS011;38422;53.172;6.974;2024-03-02T06:50:48;2.63;;;1.13;;
52512;SDS011;38422;53.172;6.974;2024-03-02T06:53:15;3.30;;;1.40;;
52512;SDS011;38422;53.172;6.974;2024-03-02T06:55:45;2.80;;;1.30;;
52512;SDS011;38422;53.172;6.974;2024-03-02T06:58:14;2.22;;;1.10;;
52512;SDS011;38422;53.172;6.974;2024-03-02T07:00:43;2.22;;;1.05;;
52512;SDS011;38422;53.172;6.974;2024-03-02T07:03:09;3.20;;;1.17;;
52512;SDS011;38422;53.172;6.974;2024-03-02T07:05:35;3.10;;;1.27;;
52512;SDS011;38422;53.172;6.974;2024-03-02T07:08:01;3.38;;;1.20;;
52512;SDS011;38422;53.172;6.974;2024-03-02T07:10:27;3.10;;;1.10;;
52512;SDS011;38422;53.172;6.974;2024-03-02T07:12:53;1.77;;;1.02;;
52512;SDS011;38422;53.172;6.974;2024-03-02T07:15:19;2.92;;;1.27;;
52512;SDS011;38422;53.172;6.974;2024-03-02T07:17:53;5.53;;;1.33;;
52512;SDS011;38422;53.172;6.974;2024-03-02T07:20:19;2.13;;;1.08;;
52512;SDS011;38422;53.172;6.974;2024-03-02T07:22:45;2.92;;;1.17;;
52512;SDS011;38422;53.172;6.974;2024-03-02T07:25:10;2.38;;;1.20;;
52512;SDS011;38422;53.172;6.974;2024-03-02T07:27:37;2.67;;;1.20;;
52512;SDS011;38422;53.172;6.974;2024-03-02T07:30:03;3.10;;;1.20;;
52512;SDS011;38422;53.172;6.974;2024-03-02T07:32:29;4.22;;;1.45;;
52512;SDS011;38422;53.172;6.974;2024-03-02T07:34:54;1.83;;;1.00;;
52512;SDS011;38422;53.172;6.974;2024-03-02T07:37:21;2.78;;;1.23;;
52512;SDS011;38422;53.172;6.974;2024-03-02T07:39:47;2.25;;;1.10;;
52512;SDS011;38422;53.172;6.974;2024-03-02T07:42:13;2.88;;;1.10;;
52512;SDS011;38422;53.172;6.974;2024-03-02T07:44:39;2.20;;;1.20;;
52512;SDS011;38422;53.172;6.974;2024-03-02T07:47:05;3.30;;;0.98;;
52512;SDS011;38422;53.172;6.974;2024-03-02T07:49:34;3.05;;;1.30;;
52512;SDS011;38422;53.172;6.974;2024-03-02T07:52:00;2.17;;;1.02;;
52512;SDS011;38422;53.172;6.974;2024-03-02T07:54:25;2.33;;;1.10;;
52512;SDS011;38422;53.172;6.974;2024-03-02T07:56:51;2.65;;;1.15;;
52512;SDS011;38422;53.172;6.974;2024-03-02T07:59:17;2.38;;;1.20;;
52512;SDS011;38422;53.172;6.974;2024-03-02T08:01:42;3.17;;;1.40;;
52512;SDS011;38422;53.172;6.974;2024-03-02T08:04:08;2.05;;;1.08;;
52512;SDS011;38422;53.172;6.974;2024-03-02T08:06:34;2.53;;;1.15;;
52512;SDS011;38422;53.172;6.974;2024-03-02T08:09:00;2.90;;;1.13;;
52512;SDS011;38422;53.172;6.974;2024-03-02T08:11:27;2.63;;;1.17;;
52512;SDS011;38422;53.172;6.974;2024-03-02T08:13:54;3.22;;;1.30;;
52512;SDS011;38422;53.172;6.974;2024-03-02T08:16:20;2.95;;;1.40;;
52512;SDS011;38422;53.172;6.974;2024-03-02T08:18:47;2.38;;;1.20;;
52512;SDS011;38422;53.172;6.974;2024-03-02T08:21:14;3.70;;;1.50;;
52512;SDS011;38422;53.172;6.974;2024-03-02T08:23:40;3.38;;;1.50;;
52512;SDS011;38422;53.172;6.974;2024-03-02T08:26:07;3.03;;;1.35;;
52512;SDS011;38422;53.172;6.974;2024-03-02T08:28:33;2.37;;;1.10;;
52512;SDS011;38422;53.172;6.974;2024-03-02T08:30:59;2.90;;;1.48;;
52512;SDS011;38422;53.172;6.974;2024-03-02T08:33:25;2.50;;;1.27;;
52512;SDS011;38422;53.172;6.974;2024-03-02T08:35:51;3.60;;;1.20;;
52512;SDS011;38422;53.172;6.974;2024-03-02T08:38:17;2.42;;;1.10;;
52512;SDS011;38422;53.172;6.974;2024-03-02T08:40:43;3.67;;;1.20;;
52512;SDS011;38422;53.172;6.974;2024-03-02T08:43:09;2.57;;;1.20;;
52512;SDS011;38422;53.172;6.974;2024-03-02T08:45:35;3.42;;;1.42;;
52512;SDS011;38422;53.172;6.974;2024-03-02T08:48:00;3.28;;;1.40;;
52512;SDS011;38422;53.172;6.974;2024-03-02T08:50:27;2.50;;;1.33;;
52512;SDS011;38422;53.172;6.974;2024-03-02T08:52:53;4.53;;;1.55;;
52512;SDS011;38422;53.172;6.974;2024-03-02T08:55:19;4.68;;;1.40;;
52512;SDS011;38422;53.172;6.974;2024-03-02T08:57:44;3.30;;;1.60;;
52512;SDS011;38422;53.172;6.974;2024-03-02T09:00:10;3.15;;;1.50;;
52512;SDS011;38422;53.172;6.974;2024-03-02T09:02:37;1.73;;;1.05;;
52512;SDS011;38422;53.172;6.974;2024-03-02T09:05:03;2.75;;;1.48;;
52512;SDS011;38422;53.172;6.974;2024-03-02T09:07:30;3.25;;;1.50;;
52512;SDS011;38422;53.172;6.974;2024-03-02T09:09:56;3.30;;;1.27;;
52512;SDS011;38422;53.172;6.974;2024-03-02T09:12:21;3.47;;;1.55;;
52512;SDS011;38422;53.172;6.974;2024-03-02T09:14:47;3.22;;;1.40;;
52512;SDS011;38422;53.172;6.974;2024-03-02T09:17:13;2.28;;;1.30;;
52512;SDS011;38422;53.172;6.974;2024-03-02T09:19:39;2.42;;;1.17;;
52512;SDS011;38422;53.172;6.974;2024-03-02T09:22:05;3.08;;;1.00;;
52512;SDS011;38422;53.172;6.974;2024-03-02T09:24:31;2.05;;;0.95;;
52512;SDS011;38422;53.172;6.974;2024-03-02T09:26:58;1.85;;;0.93;;
52512;SDS011;38422;53.172;6.974;2024-03-02T09:29:24;3.42;;;0.90;;
52512;SDS011;38422;53.172;6.974;2024-03-02T09:31:50;3.20;;;1.58;;
52512;SDS011;38422;53.172;6.974;2024-03-02T09:34:16;3.67;;;1.17;;
52512;SDS011;38422;53.172;6.974;2024-03-02T09:36:42;2.67;;;1.00;;
52512;SDS011;38422;53.172;6.974;2024-03-02T09:39:08;2.50;;;1.08;;
52512;SDS011;38422;53.172;6.974;2024-03-02T09:41:37;2.22;;;1.00;;
52512;SDS011;38422;53.172;6.974;2024-03-02T09:44:03;1.58;;;0.85;;
52512;SDS011;38422;53.172;6.974;2024-03-02T09:46:30;2.28;;;1.10;;
52512;SDS011;38422;53.172;6.974;2024-03-02T09:48:56;2.80;;;0.90;;
52512;SDS011;38422;53.172;6.974;2024-03-02T09:51:22;4.15;;;0.98;;
52512;SDS011;38422;53.172;6.974;2024-03-02T09:53:48;1.67;;;0.80;;
52512;SDS011;38422;53.172;6.974;2024-03-02T09:56:14;1.80;;;0.80;;
52512;SDS011;38422;53.172;6.974;2024-03-02T09:58:44;2.25;;;0.90;;
52512;SDS011;38422;53.172;6.974;2024-03-02T10:01:09;0.95;;;0.55;;
52512;SDS011;38422;53.172;6.974;2024-03-02T10:03:36;2.17;;;0.75;;
52512;SDS011;38422;53.172;6.974;2024-03-02T10:09:04;1.80;;;0.65;;
52512;SDS011;38422;53.172;6.974;2024-03-02T10:11:30;0.60;;;0.50;;
52512;SDS011;38422;53.172;6.974;2024-03-02T10:14:08;1.48;;;0.70;;
52512;SDS011;38422;53.172;6.974;2024-03-02T10:16:39;2.08;;;0.80;;
52512;SDS011;38422;53.172;6.974;2024-03-02T10:19:18;1.33;;;0.60;;
52512;SDS011;38422;53.172;6.974;2024-03-02T10:21:47;1.05;;;0.60;;
52512;SDS011;38422;53.172;6.974;2024-03-02T10:24:21;1.60;;;0.52;;
52512;SDS011;38422;53.172;6.974;2024-03-02T10:26:47;1.65;;;0.57;;
52512;SDS011;38422;53.172;6.974;2024-03-02T10:29:13;2.53;;;0.63;;
52512;SDS011;38422;53.172;6.974;2024-03-02T10:31:40;1.63;;;0.73;;
52512;SDS011;38422;53.172;6.974;2024-03-02T10:34:10;1.40;;;0.63;;
52512;SDS011;38422;53.172;6.974;2024-03-02T10:36:37;2.23;;;0.70;;
52512;SDS011;38422;53.172;6.974;2024-03-02T10:39:07;1.00;;;0.60;;
52512;SDS011;38422;53.172;6.974;2024-03-02T10:41:33;2.38;;;0.80;;
52512;SDS011;38422;53.172;6.974;2024-03-02T10:44:03;1.55;;;0.60;;
52512;SDS011;38422;53.172;6.974;2024-03-02T10:46:30;1.15;;;0.50;;
52512;SDS011;38422;53.172;6.974;2024-03-02T10:48:58;1.40;;;0.40;;
52512;SDS011;38422;53.172;6.974;2024-03-02T10:51:28;1.17;;;0.50;;
52512;SDS011;38422;53.172;6.974;2024-03-02T10:53:58;0.65;;;0.57;;
52512;SDS011;38422;53.172;6.974;2024-03-02T10:56:29;2.00;;;0.60;;
52512;SDS011;38422;53.172;6.974;2024-03-02T11:01:50;1.70;;;0.70;;
52512;SDS011;38422;53.172;6.974;2024-03-02T11:04:16;1.13;;;0.70;;
52512;SDS011;38422;53.172;6.974;2024-03-02T11:06:45;1.77;;;0.73;;
52512;SDS011;38422;53.172;6.974;2024-03-02T11:09:14;1.67;;;1.00;;
52512;SDS011;38422;53.172;6.974;2024-03-02T11:11:43;1.35;;;0.70;;
52512;SDS011;38422;53.172;6.974;2024-03-02T11:14:13;2.53;;;1.00;;
52512;SDS011;38422;53.172;6.974;2024-03-02T11:16:41;3.00;;;1.15;;
52512;SDS011;38422;53.172;6.974;2024-03-02T11:19:12;3.08;;;1.10;;
52512;SDS011;38422;53.172;6.974;2024-03-02T11:21:39;1.52;;;1.00;;
52512;SDS011;38422;53.172;6.974;2024-03-02T11:26:49;3.13;;;1.10;;
52512;SDS011;38422;53.172;6.974;2024-03-02T11:32:20;1.73;;;1.00;;
52512;SDS011;38422;53.172;6.974;2024-03-02T11:34:49;1.23;;;0.73;;
52512;SDS011;38422;53.172;6.974;2024-03-02T11:37:16;2.50;;;0.88;;
52512;SDS011;38422;53.172;6.974;2024-03-02T11:39:43;2.40;;;1.13;;
52512;SDS011;38422;53.172;6.974;2024-03-02T11:42:10;2.50;;;1.10;;
52512;SDS011;38422;53.172;6.974;2024-03-02T11:44:37;1.52;;;1.00;;
52512;SDS011;38422;53.172;6.974;2024-03-02T11:47:07;2.08;;;1.13;;
52512;SDS011;38422;53.172;6.974;2024-03-02T11:49:43;2.00;;;1.23;;
52512;SDS011;38422;53.172;6.974;2024-03-02T11:52:11;1.38;;;1.10;;
52512;SDS011;38422;53.172;6.974;2024-03-02T11:54:39;2.72;;;1.33;;
52512;SDS011;38422;53.172;6.974;2024-03-02T11:57:11;1.85;;;1.20;;
52512;SDS011;38422;53.172;6.974;2024-03-02T11:59:38;3.05;;;1.42;;
52512;SDS011;38422;53.172;6.974;2024-03-02T12:02:03;2.13;;;1.40;;
52512;SDS011;38422;53.172;6.974;2024-03-02T12:04:29;3.33;;;1.30;;
52512;SDS011;38422;53.172;6.974;2024-03-02T12:06:59;2.10;;;1.40;;
52512;SDS011;38422;53.172;6.974;2024-03-02T12:09:28;2.95;;;1.58;;
52512;SDS011;38422;53.172;6.974;2024-03-02T12:12:01;3.08;;;1.63;;
52512;SDS011;38422;53.172;6.974;2024-03-02T12:14:31;3.15;;;1.52;;
52512;SDS011;38422;53.172;6.974;2024-03-02T12:16:57;2.97;;;1.30;;
52512;SDS011;38422;53.172;6.974;2024-03-02T12:19:24;3.80;;;1.67;;
52512;SDS011;38422;53.172;6.974;2024-03-02T12:21:51;3.17;;;1.75;;
52512;SDS011;38422;53.172;6.974;2024-03-02T12:24:17;3.45;;;1.50;;
52512;SDS011;38422;53.172;6.974;2024-03-02T12:26:43;3.08;;;1.42;;
52512;SDS011;38422;53.172;6.974;2024-03-02T12:29:09;3.35;;;1.23;;
52512;SDS011;38422;53.172;6.974;2024-03-02T12:31:35;1.52;;;1.00;;
52512;SDS011;38422;53.172;6.974;2024-03-02T12:34:01;2.58;;;1.20;;
52512;SDS011;38422;53.172;6.974;2024-03-02T12:36:28;2.53;;;0.90;;
52512;SDS011;38422;53.172;6.974;2024-03-02T12:38:54;2.67;;;1.00;;
52512;SDS011;38422;53.172;6.974;2024-03-02T12:41:20;1.73;;;0.88;;
52512;SDS011;38422;53.172;6.974;2024-03-02T12:43:46;0.70;;;0.70;;
52512;SDS011;38422;53.172;6.974;2024-03-02T12:46:12;3.03;;;1.00;;
52512;SDS011;38422;53.172;6.974;2024-03-02T12:48:37;2.05;;;0.80;;
52512;SDS011;38422;53.172;6.974;2024-03-02T12:51:06;2.60;;;0.90;;
52512;SDS011;38422;53.172;6.974;2024-03-02T12:53:31;1.42;;;0.90;;
52512;SDS011;38422;53.172;6.974;2024-03-02T12:55:57;2.45;;;0.98;;
52512;SDS011;38422;53.172;6.974;2024-03-02T12:58:24;1.53;;;0.97;;
52512;SDS011;38422;53.172;6.974;2024-03-02T13:01:05;1.17;;;0.75;;
52512;SDS011;38422;53.172;6.974;2024-03-02T13:03:34;2.17;;;0.80;;
52512;SDS011;38422;53.172;6.974;2024-03-02T13:06:04;4.07;;;1.08;;
52512;SDS011;38422;53.172;6.974;2024-03-02T13:08:31;2.85;;;0.80;;
52512;SDS011;38422;53.172;6.974;2024-03-02T13:10:58;1.80;;;1.00;;
52512;SDS011;38422;53.172;6.974;2024-03-02T13:13:24;2.75;;;0.85;;
52512;SDS011;38422;53.172;6.974;2024-03-02T13:15:50;1.27;;;0.95;;
52512;SDS011;38422;53.172;6.974;2024-03-02T13:18:21;1.52;;;0.77;;
52512;SDS011;38422;53.172;6.974;2024-03-02T13:20:47;1.38;;;0.77;;
52512;SDS011;38422;53.172;6.974;2024-03-02T13:23:13;1.15;;;0.80;;
52512;SDS011;38422;53.172;6.974;2024-03-02T13:25:39;1.52;;;0.70;;
52512;SDS011;38422;53.172;6.974;2024-03-02T13:28:05;1.85;;;0.98;;
52512;SDS011;38422;53.172;6.974;2024-03-02T13:30:32;1.40;;;0.80;;
52512;SDS011;38422;53.172;6.974;2024-03-02T13:32:58;2.88;;;1.00;;
52512;SDS011;38422;53.172;6.974;2024-03-02T13:35:24;2.25;;;1.10;;
52512;SDS011;38422;53.172;6.974;2024-03-02T13:37:49;2.72;;;1.13;;
52512;SDS011;38422;53.172;6.974;2024-03-02T13:40:15;1.50;;;0.90;;
52512;SDS011;38422;53.172;6.974;2024-03-02T13:42:48;2.88;;;1.10;;
52512;SDS011;38422;53.172;6.974;2024-03-02T13:45:18;1.73;;;1.10;;
52512;SDS011;38422;53.172;6.974;2024-03-02T13:47:47;1.85;;;0.98;;
52512;SDS011;38422;53.172;6.974;2024-03-02T13:50:13;1.48;;;0.90;;
52512;SDS011;38422;53.172;6.974;2024-03-02T13:52:39;3.22;;;1.25;;
52512;SDS011;38422;53.172;6.974;2024-03-02T13:55:09;2.88;;;1.23;;
52512;SDS011;38422;53.172;6.974;2024-03-02T13:57:35;2.00;;;1.20;;
52512;SDS011;38422;53.172;6.974;2024-03-02T14:00:01;1.95;;;1.00;;
52512;SDS011;38422;53.172;6.974;2024-03-02T14:02:28;2.80;;;1.05;;
52512;SDS011;38422;53.172;6.974;2024-03-02T14:04:54;2.97;;;1.02;;
52512;SDS011;38422;53.172;6.974;2024-03-02T14:07:19;3.42;;;1.10;;
52512;SDS011;38422;53.172;6.974;2024-03-02T14:09:45;2.05;;;1.13;;
52512;SDS011;38422;53.172;6.974;2024-03-02T14:12:11;2.87;;;0.90;;
52512;SDS011;38422;53.172;6.974;2024-03-02T14:14:38;2.90;;;1.08;;
52512;SDS011;38422;53.172;6.974;2024-03-02T14:17:04;1.88;;;1.00;;
52512;SDS011;38422;53.172;6.974;2024-03-02T14:19:31;2.28;;;0.90;;
52512;SDS011;38422;53.172;6.974;2024-03-02T14:21:57;1.52;;;0.82;;
52512;SDS011;38422;53.172;6.974;2024-03-02T14:24:23;1.73;;;1.00;;
52512;SDS011;38422;53.172;6.974;2024-03-02T14:26:51;2.75;;;0.93;;
52512;SDS011;38422;53.172;6.974;2024-03-02T14:29:18;2.35;;;1.00;;
52512;SDS011;38422;53.172;6.974;2024-03-02T14:31:43;1.55;;;0.90;;
52512;SDS011;38422;53.172;6.974;2024-03-02T14:34:13;1.92;;;0.93;;
52512;SDS011;38422;53.172;6.974;2024-03-02T14:36:41;1.73;;;0.93;;
52512;SDS011;38422;53.172;6.974;2024-03-02T14:39:09;1.98;;;0.88;;
52512;SDS011;38422;53.172;6.974;2024-03-02T14:41:38;1.63;;;0.80;;
52512;SDS011;38422;53.172;6.974;2024-03-02T14:44:04;1.70;;;0.85;;
52512;SDS011;38422;53.172;6.974;2024-03-02T14:46:30;1.90;;;0.80;;
52512;SDS011;38422;53.172;6.974;2024-03-02T14:48:56;1.17;;;0.77;;
52512;SDS011;38422;53.172;6.974;2024-03-02T14:51:23;1.00;;;0.70;;
52512;SDS011;38422;53.172;6.974;2024-03-02T14:53:50;1.40;;;0.90;;
52512;SDS011;38422;53.172;6.974;2024-03-02T14:56:16;1.92;;;0.88;;
52512;SDS011;38422;53.172;6.974;2024-03-02T14:58:42;1.75;;;0.90;;
52512;SDS011;38422;53.172;6.974;2024-03-02T15:01:08;2.42;;;0.90;;
52512;SDS011;38422;53.172;6.974;2024-03-02T15:03:37;1.95;;;0.90;;
52512;SDS011;38422;53.172;6.974;2024-03-02T15:06:03;1.90;;;1.00;;
52512;SDS011;38422;53.172;6.974;2024-03-02T15:08:29;2.70;;;1.00;;
52512;SDS011;38422;53.172;6.974;2024-03-02T15:10:55;1.95;;;0.95;;